sensor_id;sensor_type;location;lat;lon;timestamp;P1;durP1;ratioP1;P2;durP2;ratioP2
79640;SDS011;69115;49.904;14.390;2023-05-02T00:01:43;10.52;;;7.13;;
79640;SDS011;69115;49.904;14.390;2023-05-02T00:04:08;9.05;;;6.60;;
79640;SDS011;69115;49.904;14.390;2023-05-02T00:06:33;7.72;;;6.50;;
79640;SDS011;69115;49.904;14.390;2023-05-02T00:08:59;8.18;;;5.85;;
79640;SDS011;69115;49.904;14.390;2023-05-02T00:11:24;8.88;;;7.03;;
79640;SDS011;69115;49.904;14.390;2023-05-02T00:13:50;9.93;;;6.65;;
79640;SDS011;69115;49.904;14.390;2023-05-02T00:16:15;10.90;;;7.20;;
79640;SDS011;69115;49.904;14.390;2023-05-02T00:18:42;8.60;;;6.43;;
79640;SDS011;69115;49.904;14.390;2023-05-02T00:21:07;7.60;;;5.78;;
79640;SDS011;69115;49.904;14.390;2023-05-02T00:23:33;10.32;;;7.28;;
79640;SDS011;69115;49.904;14.390;2023-05-02T00:25:58;10.90;;;8.18;;
79640;SDS011;69115;49.904;14.390;2023-05-02T00:28:24;11.77;;;7.57;;
79640;SDS011;69115;49.904;14.390;2023-05-02T00:30:51;9.55;;;7.70;;
79640;SDS011;69115;49.904;14.390;2023-05-02T00:33:16;12.05;;;7.80;;
79640;SDS011;69115;49.904;14.390;2023-05-02T00:35:42;9.68;;;7.53;;
79640;SDS011;69115;49.904;14.390;2023-05-02T00:38:07;9.43;;;7.07;;
79640;SDS011;69115;49.904;14.390;2023-05-02T00:40:54;8.75;;;6.53;;
79640;SDS011;69115;49.904;14.390;2023-05-02T00:43:18;9.32;;;7.03;;
79640;SDS011;69115;49.904;14.390;2023-05-02T00:45:44;10.10;;;7.57;;
79640;SDS011;69115;49.904;14.390;2023-05-02T00:48:12;10.65;;;8.02;;
79640;SDS011;69115;49.904;14.390;2023-05-02T00:50:39;9.15;;;7.50;;
79640;SDS011;69115;49.904;14.390;2023-05-02T00:53:06;11.80;;;7.50;;
79640;SDS011;69115;49.904;14.390;2023-05-02T00:55:32;9.90;;;6.50;;
79640;SDS011;69115;49.904;14.390;2023-05-02T00:57:58;9.20;;;7.22;;
79640;SDS011;69115;49.904;14.390;2023-05-02T01:00:27;10.75;;;7.20;;
79640;SDS011;69115;49.904;14.390;2023-05-02T01:03:04;10.52;;;7.57;;
79640;SDS011;69115;49.904;14.390;2023-05-02T01:08:37;9.55;;;6.75;;
79640;SDS011;69115;49.904;14.390;2023-05-02T01:11:09;9.45;;;6.15;;
79640;SDS011;69115;49.904;14.390;2023-05-02T01:13:42;9.80;;;6.35;;
79640;SDS011;69115;49.904;14.390;2023-05-02T01:16:10;10.27;;;6.85;;
79640;SDS011;69115;49.904;14.390;2023-05-02T01:18:37;10.98;;;6.88;;
79640;SDS011;69115;49.904;14.390;2023-05-02T01:21:06;10.48;;;6.90;;
79640;SDS011;69115;49.904;14.390;2023-05-02T01:29:00;8.07;;;6.28;;
79640;SDS011;69115;49.904;14.390;2023-05-02T01:31:28;9.35;;;6.45;;
79640;SDS011;69115;49.904;14.390;2023-05-02T01:33:57;10.50;;;6.47;;
79640;SDS011;69115;49.904;14.390;2023-05-02T01:36:24;10.32;;;7.10;;
79640;SDS011;69115;49.904;14.390;2023-05-02T01:38:51;8.70;;;6.28;;
79640;SDS011;69115;49.904;14.390;2023-05-02T01:41:17;9.02;;;6.68;;
79640;SDS011;69115;49.904;14.390;2023-05-02T01:43:43;10.25;;;8.10;;
79640;SDS011;69115;49.904;14.390;2023-05-02T01:46:09;8.05;;;6.68;;
79640;SDS011;69115;49.904;14.390;2023-05-02T01:48:35;9.98;;;7.30;;
79640;SDS011;69115;49.904;14.390;2023-05-02T01:51:01;9.57;;;7.22;;
79640;SDS011;69115;49.904;14.390;2023-05-02T01:53:27;9.25;;;6.95;;
79640;SDS011;69115;49.904;14.390;2023-05-02T01:55:53;10.27;;;7.32;;
79640;SDS011;69115;49.904;14.390;2023-05-02T01:58:20;10.35;;;6.90;;
79640;SDS011;69115;49.904;14.390;2023-05-02T02:00:46;10.35;;;7.50;;
79640;SDS011;69115;49.904;14.390;2023-05-02T02:03:12;11.02;;;7.70;;
79640;SDS011;69115;49.904;14.390;2023-05-02T02:05:38;10.43;;;7.82;;
79640;SDS011;69115;49.904;14.390;2023-05-02T02:08:04;10.60;;;6.85;;
79640;SDS011;69115;49.904;14.390;2023-05-02T02:10:31;10.02;;;7.22;;
79640;SDS011;69115;49.904;14.390;2023-05-02T02:13:03;10.35;;;7.30;;
79640;SDS011;69115;49.904;14.390;2023-05-02T02:15:34;11.55;;;7.05;;
79640;SDS011;69115;49.904;14.390;2023-05-02T02:18:09;8.65;;;7.00;;
79640;SDS011;69115;49.904;14.390;2023-05-02T02:20:37;10.27;;;7.70;;
79640;SDS011;69115;49.904;14.390;2023-05-02T02:23:04;10.52;;;7.28;;
79640;SDS011;69115;49.904;14.390;2023-05-02T02:25:31;10.35;;;7.80;;
79640;SDS011;69115;49.904;14.390;2023-05-02T02:27:58;9.63;;;7.40;;
79640;SDS011;69115;49.904;14.390;2023-05-02T02:30:23;10.48;;;8.00;;
79640;SDS011;69115;49.904;14.390;2023-05-02T02:32:49;13.80;;;9.07;;
79640;SDS011;69115;49.904;14.390;2023-05-02T02:35:14;10.55;;;6.95;;
79640;SDS011;69115;49.904;14.390;2023-05-02T02:37:40;11.98;;;7.80;;
79640;SDS011;69115;49.904;14.390;2023-05-02T02:40:46;11.20;;;7.55;;
79640;SDS011;69115;49.904;14.390;2023-05-02T02:43:23;9.45;;;7.22;;
79640;SDS011;69115;49.904;14.390;2023-05-02T02:45:54;12.55;;;8.45;;
79640;SDS011;69115;49.904;14.390;2023-05-02T02:48:34;13.43;;;8.80;;
79640;SDS011;69115;49.904;14.390;2023-05-02T02:51:19;15.43;;;8.77;;
79640;SDS011;69115;49.904;14.390;2023-05-02T02:56:24;10.48;;;8.05;;
79640;SDS011;69115;49.904;14.390;2023-05-02T03:01:36;13.95;;;9.93;;
79640;SDS011;69115;49.904;14.390;2023-05-02T03:04:04;14.23;;;9.23;;
79640;SDS011;69115;49.904;14.390;2023-05-02T03:06:32;18.17;;;10.23;;
79640;SDS011;69115;49.904;14.390;2023-05-02T03:08:57;13.00;;;8.65;;
79640;SDS011;69115;49.904;14.390;2023-05-02T03:11:22;12.88;;;8.93;;
79640;SDS011;69115;49.904;14.390;2023-05-02T03:13:48;12.57;;;9.05;;
79640;SDS011;69115;49.904;14.390;2023-05-02T03:18:58;12.40;;;8.40;;
79640;SDS011;69115;49.904;14.390;2023-05-02T03:21:24;12.80;;;8.95;;
79640;SDS011;69115;49.904;14.390;2023-05-02T03:23:49;12.43;;;9.20;;
79640;SDS011;69115;49.904;14.390;2023-05-02T03:26:15;13.43;;;8.88;;
79640;SDS011;69115;49.904;14.390;2023-05-02T03:28:41;14.13;;;9.35;;
79640;SDS011;69115;49.904;14.390;2023-05-02T03:31:06;13.52;;;8.50;;
79640;SDS011;69115;49.904;14.390;2023-05-02T03:33:31;11.68;;;8.95;;
79640;SDS011;69115;49.904;14.390;2023-05-02T03:35:57;15.75;;;9.18;;
79640;SDS011;69115;49.904;14.390;2023-05-02T03:38:22;11.57;;;8.38;;
79640;SDS011;69115;49.904;14.390;2023-05-02T03:40:48;10.95;;;7.40;;
79640;SDS011;69115;49.904;14.390;2023-05-02T03:43:13;13.02;;;8.93;;
79640;SDS011;69115;49.904;14.390;2023-05-02T03:45:39;13.20;;;8.48;;
79640;SDS011;69115;49.904;14.390;2023-05-02T03:48:04;11.73;;;8.40;;
79640;SDS011;69115;49.904;14.390;2023-05-02T03:50:30;13.05;;;9.00;;
79640;SDS011;69115;49.904;14.390;2023-05-02T03:52:56;12.23;;;9.20;;
79640;SDS011;69115;49.904;14.390;2023-05-02T03:55:22;12.48;;;8.55;;
79640;SDS011;69115;49.904;14.390;2023-05-02T03:57:47;12.02;;;8.18;;
79640;SDS011;69115;49.904;14.390;2023-05-02T04:00:13;10.00;;;7.05;;
79640;SDS011;69115;49.904;14.390;2023-05-02T04:02:38;11.77;;;7.85;;
79640;SDS011;69115;49.904;14.390;2023-05-02T04:05:04;12.48;;;8.85;;
79640;SDS011;69115;49.904;14.390;2023-05-02T04:07:29;12.38;;;8.43;;
79640;SDS011;69115;49.904;14.390;2023-05-02T04:09:55;13.40;;;8.70;;
79640;SDS011;69115;49.904;14.390;2023-05-02T04:12:20;12.95;;;8.63;;
79640;SDS011;69115;49.904;14.390;2023-05-02T04:14:46;14.65;;;10.13;;
79640;SDS011;69115;49.904;14.390;2023-05-02T04:17:12;16.38;;;10.38;;
79640;SDS011;69115;49.904;14.390;2023-05-02T04:19:39;18.08;;;9.35;;
79640;SDS011;69115;49.904;14.390;2023-05-02T04:22:04;12.02;;;8.52;;
79640;SDS011;69115;49.904;14.390;2023-05-02T04:24:30;13.95;;;9.20;;
79640;SDS011;69115;49.904;14.390;2023-05-02T04:26:55;15.15;;;9.00;;
79640;SDS011;69115;49.904;14.390;2023-05-02T04:29:21;14.85;;;9.18;;
79640;SDS011;69115;49.904;14.390;2023-05-02T04:31:46;18.63;;;10.98;;
79640;SDS011;69115;49.904;14.390;2023-05-02T04:34:11;27.25;;;14.73;;
79640;SDS011;69115;49.904;14.390;2023-05-02T04:36:37;84.38;;;39.35;;
79640;SDS011;69115;49.904;14.390;2023-05-02T04:39:02;91.53;;;37.58;;
79640;SDS011;69115;49.904;14.390;2023-05-02T04:41:28;86.55;;;35.10;;
79640;SDS011;69115;49.904;14.390;2023-05-02T04:43:54;84.07;;;35.45;;
79640;SDS011;69115;49.904;14.390;2023-05-02T04:46:19;51.20;;;24.00;;
79640;SDS011;69115;49.904;14.390;2023-05-02T04:48:44;47.88;;;21.83;;
79640;SDS011;69115;49.904;14.390;2023-05-02T04:51:10;26.25;;;14.30;;
79640;SDS011;69115;49.904;14.390;2023-05-02T04:53:36;24.98;;;12.98;;
79640;SDS011;69115;49.904;14.390;2023-05-02T04:56:02;19.30;;;11.40;;
79640;SDS011;69115;49.904;14.390;2023-05-02T04:58:27;18.38;;;10.63;;
79640;SDS011;69115;49.904;14.390;2023-05-02T05:00:53;14.10;;;11.02;;
79640;SDS011;69115;49.904;14.390;2023-05-02T05:03:19;12.32;;;9.18;;
79640;SDS011;69115;49.904;14.390;2023-05-02T05:05:45;14.73;;;9.90;;
79640;SDS011;69115;49.904;14.390;2023-05-02T05:08:10;12.00;;;9.02;;
79640;SDS011;69115;49.904;14.390;2023-05-02T05:10:36;12.27;;;8.77;;
79640;SDS011;69115;49.904;14.390;2023-05-02T05:13:01;18.95;;;9.95;;
79640;SDS011;69115;49.904;14.390;2023-05-02T05:15:28;18.75;;;10.70;;
79640;SDS011;69115;49.904;14.390;2023-05-02T05:17:53;35.47;;;15.68;;
79640;SDS011;69115;49.904;14.390;2023-05-02T05:20:19;37.35;;;16.70;;
79640;SDS011;69115;49.904;14.390;2023-05-02T05:22:45;36.08;;;16.40;;
79640;SDS011;69115;49.904;14.390;2023-05-02T05:25:10;34.92;;;15.63;;
79640;SDS011;69115;49.904;14.390;2023-05-02T05:27:36;31.25;;;15.07;;
79640;SDS011;69115;49.904;14.390;2023-05-02T05:30:02;28.33;;;13.57;;
79640;SDS011;69115;49.904;14.390;2023-05-02T05:32:34;26.13;;;13.20;;
79640;SDS011;69115;49.904;14.390;2023-05-02T05:34:59;22.55;;;12.13;;
79640;SDS011;69115;49.904;14.390;2023-05-02T05:37:25;15.85;;;9.35;;
79640;SDS011;69115;49.904;14.390;2023-05-02T05:39:50;21.13;;;11.77;;
79640;SDS011;69115;49.904;14.390;2023-05-02T05:42:16;22.38;;;11.98;;
79640;SDS011;69115;49.904;14.390;2023-05-02T05:44:41;24.27;;;11.88;;
79640;SDS011;69115;49.904;14.390;2023-05-02T05:47:07;22.20;;;12.15;;
79640;SDS011;69115;49.904;14.390;2023-05-02T05:49:32;26.08;;;12.38;;
79640;SDS011;69115;49.904;14.390;2023-05-02T05:52:00;19.58;;;10.82;;
79640;SDS011;69115;49.904;14.390;2023-05-02T05:54:26;19.20;;;10.75;;
79640;SDS011;69115;49.904;14.390;2023-05-02T05:56:52;21.08;;;12.80;;
79640;SDS011;69115;49.904;14.390;2023-05-02T05:59:17;26.70;;;13.40;;
79640;SDS011;69115;49.904;14.390;2023-05-02T06:01:43;18.35;;;10.70;;
79640;SDS011;69115;49.904;14.390;2023-05-02T06:04:08;13.45;;;8.77;;
79640;SDS011;69115;49.904;14.390;2023-05-02T06:06:33;14.45;;;10.18;;
79640;SDS011;69115;49.904;14.390;2023-05-02T06:08:59;13.23;;;8.93;;
79640;SDS011;69115;49.904;14.390;2023-05-02T06:11:24;15.57;;;9.80;;
79640;SDS011;69115;49.904;14.390;2023-05-02T06:13:50;14.35;;;9.55;;
79640;SDS011;69115;49.904;14.390;2023-05-02T06:16:16;16.90;;;8.43;;
79640;SDS011;69115;49.904;14.390;2023-05-02T06:18:42;11.73;;;6.60;;
79640;SDS011;69115;49.904;14.390;2023-05-02T06:21:08;13.95;;;9.63;;
79640;SDS011;69115;49.904;14.390;2023-05-02T06:23:33;14.07;;;9.90;;
79640;SDS011;69115;49.904;14.390;2023-05-02T06:25:59;13.68;;;8.70;;
79640;SDS011;69115;49.904;14.390;2023-05-02T06:28:26;12.02;;;9.27;;
79640;SDS011;69115;49.904;14.390;2023-05-02T06:31:02;13.38;;;8.32;;
79640;SDS011;69115;49.904;14.390;2023-05-02T06:33:29;12.80;;;8.07;;
79640;SDS011;69115;49.904;14.390;2023-05-02T06:35:55;12.13;;;8.40;;
79640;SDS011;69115;49.904;14.390;2023-05-02T06:38:21;12.10;;;7.60;;
79640;SDS011;69115;49.904;14.390;2023-05-02T06:40:47;10.82;;;8.02;;
79640;SDS011;69115;49.904;14.390;2023-05-02T06:43:13;13.57;;;8.68;;
79640;SDS011;69115;49.904;14.390;2023-05-02T06:45:39;13.20;;;8.45;;
79640;SDS011;69115;49.904;14.390;2023-05-02T06:48:05;11.90;;;9.55;;
79640;SDS011;69115;49.904;14.390;2023-05-02T06:50:31;13.85;;;8.98;;
79640;SDS011;69115;49.904;14.390;2023-05-02T06:52:57;17.10;;;10.70;;
79640;SDS011;69115;49.904;14.390;2023-05-02T06:55:23;15.77;;;9.95;;
79640;SDS011;69115;49.904;14.390;2023-05-02T06:57:48;13.35;;;9.20;;
79640;SDS011;69115;49.904;14.390;2023-05-02T07:00:18;16.08;;;9.35;;
79640;SDS011;69115;49.904;14.390;2023-05-02T07:02:47;13.65;;;9.68;;
79640;SDS011;69115;49.904;14.390;2023-05-02T07:05:14;13.70;;;9.07;;
79640;SDS011;69115;49.904;14.390;2023-05-02T07:07:43;18.88;;;10.93;;
79640;SDS011;69115;49.904;14.390;2023-05-02T07:10:09;16.55;;;10.85;;
79640;SDS011;69115;49.904;14.390;2023-05-02T07:12:35;18.10;;;11.30;;
79640;SDS011;69115;49.904;14.390;2023-05-02T07:15:01;14.27;;;9.90;;
79640;SDS011;69115;49.904;14.390;2023-05-02T07:17:26;11.93;;;8.25;;
79640;SDS011;69115;49.904;14.390;2023-05-02T07:19:52;15.75;;;10.48;;
79640;SDS011;69115;49.904;14.390;2023-05-02T07:22:18;13.48;;;9.10;;
79640;SDS011;69115;49.904;14.390;2023-05-02T07:24:43;15.32;;;9.77;;
79640;SDS011;69115;49.904;14.390;2023-05-02T07:27:09;14.48;;;10.13;;
79640;SDS011;69115;49.904;14.390;2023-05-02T07:29:36;18.55;;;10.23;;
79640;SDS011;69115;49.904;14.390;2023-05-02T07:32:01;16.90;;;10.55;;
79640;SDS011;69115;49.904;14.390;2023-05-02T07:34:27;13.50;;;8.68;;
79640;SDS011;69115;49.904;14.390;2023-05-02T07:36:52;15.63;;;10.15;;
79640;SDS011;69115;49.904;14.390;2023-05-02T07:39:18;16.92;;;10.50;;
79640;SDS011;69115;49.904;14.390;2023-05-02T07:41:43;11.75;;;8.65;;
79640;SDS011;69115;49.904;14.390;2023-05-02T07:44:10;17.75;;;10.40;;
79640;SDS011;69115;49.904;14.390;2023-05-02T07:46:35;13.57;;;9.98;;
79640;SDS011;69115;49.904;14.390;2023-05-02T07:49:01;13.77;;;8.88;;
79640;SDS011;69115;49.904;14.390;2023-05-02T07:51:26;15.77;;;9.18;;
79640;SDS011;69115;49.904;14.390;2023-05-02T07:53:53;11.32;;;8.07;;
79640;SDS011;69115;49.904;14.390;2023-05-02T07:56:22;12.27;;;9.35;;
79640;SDS011;69115;49.904;14.390;2023-05-02T07:58:48;11.07;;;8.02;;
79640;SDS011;69115;49.904;14.390;2023-05-02T08:01:15;14.10;;;7.95;;
79640;SDS011;69115;49.904;14.390;2023-05-02T08:03:41;15.80;;;9.85;;
79640;SDS011;69115;49.904;14.390;2023-05-02T08:06:07;13.52;;;8.80;;
79640;SDS011;69115;49.904;14.390;2023-05-02T08:08:33;12.45;;;7.53;;
79640;SDS011;69115;49.904;14.390;2023-05-02T08:10:59;13.20;;;7.82;;
79640;SDS011;69115;49.904;14.390;2023-05-02T08:13:25;11.25;;;8.38;;
79640;SDS011;69115;49.904;14.390;2023-05-02T08:15:51;10.98;;;7.85;;
79640;SDS011;69115;49.904;14.390;2023-05-02T08:18:21;25.17;;;9.30;;
79640;SDS011;69115;49.904;14.390;2023-05-02T08:20:48;30.77;;;9.85;;
79640;SDS011;69115;49.904;14.390;2023-05-02T08:23:17;13.32;;;8.48;;
79640;SDS011;69115;49.904;14.390;2023-05-02T08:25:43;11.43;;;8.63;;
79640;SDS011;69115;49.904;14.390;2023-05-02T08:28:08;13.25;;;8.73;;
79640;SDS011;69115;49.904;14.390;2023-05-02T08:30:34;14.45;;;9.80;;
79640;SDS011;69115;49.904;14.390;2023-05-02T08:32:59;11.90;;;8.70;;
79640;SDS011;69115;49.904;14.390;2023-05-02T08:35:24;11.88;;;8.90;;
79640;SDS011;69115;49.904;14.390;2023-05-02T08:37:50;12.48;;;7.95;;
79640;SDS011;69115;49.904;14.390;2023-05-02T08:40:16;12.68;;;7.43;;
79640;SDS011;69115;49.904;14.390;2023-05-02T08:42:42;11.20;;;7.70;;
79640;SDS011;69115;49.904;14.390;2023-05-02T08:45:09;16.90;;;7.30;;
79640;SDS011;69115;49.904;14.390;2023-05-02T08:47:35;12.23;;;9.02;;
79640;SDS011;69115;49.904;14.390;2023-05-02T08:50:01;11.23;;;7.20;;
79640;SDS011;69115;49.904;14.390;2023-05-02T08:52:31;14.77;;;7.55;;
79640;SDS011;69115;49.904;14.390;2023-05-02T08:54:57;11.07;;;6.78;;
79640;SDS011;69115;49.904;14.390;2023-05-02T08:57:25;9.07;;;6.32;;
79640;SDS011;69115;49.904;14.390;2023-05-02T08:59:53;11.65;;;7.00;;
79640;SDS011;69115;49.904;14.390;2023-05-02T09:05:14;9.20;;;6.10;;
79640;SDS011;69115;49.904;14.390;2023-05-02T09:07:44;11.75;;;6.60;;
79640;SDS011;69115;49.904;14.390;2023-05-02T09:10:13;10.70;;;6.90;;
79640;SDS011;69115;49.904;14.390;2023-05-02T09:12:39;9.65;;;5.85;;
79640;SDS011;69115;49.904;14.390;2023-05-02T09:15:11;8.95;;;6.15;;
79640;SDS011;69115;49.904;14.390;2023-05-02T09:17:39;8.07;;;5.70;;
79640;SDS011;69115;49.904;14.390;2023-05-02T09:22:37;9.85;;;6.28;;
79640;SDS011;69115;49.904;14.390;2023-05-02T09:25:04;8.15;;;5.93;;
79640;SDS011;69115;49.904;14.390;2023-05-02T09:27:47;12.80;;;5.93;;
79640;SDS011;69115;49.904;14.390;2023-05-02T09:30:22;8.93;;;5.70;;
79640;SDS011;69115;49.904;14.390;2023-05-02T09:32:49;9.52;;;5.72;;
79640;SDS011;69115;49.904;14.390;2023-05-02T09:35:15;11.32;;;5.72;;
79640;SDS011;69115;49.904;14.390;2023-05-02T09:37:48;9.57;;;6.20;;
79640;SDS011;69115;49.904;14.390;2023-05-02T09:40:17;8.40;;;5.70;;
79640;SDS011;69115;49.904;14.390;2023-05-02T09:42:42;7.78;;;5.68;;
79640;SDS011;69115;49.904;14.390;2023-05-02T09:45:07;7.95;;;5.20;;
79640;SDS011;69115;49.904;14.390;2023-05-02T09:47:33;8.45;;;5.57;;
79640;SDS011;69115;49.904;14.390;2023-05-02T09:50:00;7.40;;;5.50;;
79640;SDS011;69115;49.904;14.390;2023-05-02T09:52:26;7.97;;;5.53;;
79640;SDS011;69115;49.904;14.390;2023-05-02T09:54:51;8.15;;;5.22;;
79640;SDS011;69115;49.904;14.390;2023-05-02T09:57:17;10.68;;;5.13;;
79640;SDS011;69115;49.904;14.390;2023-05-02T09:59:56;7.82;;;4.97;;
79640;SDS011;69115;49.904;14.390;2023-05-02T10:02:22;7.80;;;4.93;;
79640;SDS011;69115;49.904;14.390;2023-05-02T10:04:48;7.57;;;5.30;;
79640;SDS011;69115;49.904;14.390;2023-05-02T10:07:14;7.53;;;4.85;;
79640;SDS011;69115;49.904;14.390;2023-05-02T10:09:42;10.40;;;5.05;;
79640;SDS011;69115;49.904;14.390;2023-05-02T10:12:09;7.18;;;5.00;;
79640;SDS011;69115;49.904;14.390;2023-05-02T10:14:39;10.70;;;5.38;;
79640;SDS011;69115;49.904;14.390;2023-05-02T10:17:15;8.20;;;5.22;;
79640;SDS011;69115;49.904;14.390;2023-05-02T10:22:21;9.10;;;6.10;;
79640;SDS011;69115;49.904;14.390;2023-05-02T10:24:50;8.20;;;5.85;;
79640;SDS011;69115;49.904;14.390;2023-05-02T10:27:17;7.57;;;5.40;;
79640;SDS011;69115;49.904;14.390;2023-05-02T10:29:42;10.27;;;5.40;;
79640;SDS011;69115;49.904;14.390;2023-05-02T10:32:08;7.05;;;5.65;;
79640;SDS011;69115;49.904;14.390;2023-05-02T10:34:35;8.80;;;5.82;;
79640;SDS011;69115;49.904;14.390;2023-05-02T10:37:01;9.60;;;5.93;;
79640;SDS011;69115;49.904;14.390;2023-05-02T10:39:27;8.45;;;5.75;;
79640;SDS011;69115;49.904;14.390;2023-05-02T10:41:54;9.10;;;5.90;;
79640;SDS011;69115;49.904;14.390;2023-05-02T10:44:36;9.57;;;5.55;;
79640;SDS011;69115;49.904;14.390;2023-05-02T10:49:55;5.93;;;5.07;;
79640;SDS011;69115;49.904;14.390;2023-05-02T11:00:24;9.20;;;6.13;;
79640;SDS011;69115;49.904;14.390;2023-05-02T11:02:53;8.13;;;5.53;;
79640;SDS011;69115;49.904;14.390;2023-05-02T11:05:20;8.27;;;6.25;;
79640;SDS011;69115;49.904;14.390;2023-05-02T11:07:46;9.70;;;5.80;;
79640;SDS011;69115;49.904;14.390;2023-05-02T11:12:46;8.10;;;5.72;;
79640;SDS011;69115;49.904;14.390;2023-05-02T11:18:06;8.38;;;6.22;;
79640;SDS011;69115;49.904;14.390;2023-05-02T11:20:33;10.13;;;5.75;;
79640;SDS011;69115;49.904;14.390;2023-05-02T11:25:41;9.55;;;6.47;;
79640;SDS011;69115;49.904;14.390;2023-05-02T11:28:37;8.50;;;5.65;;
79640;SDS011;69115;49.904;14.390;2023-05-02T11:31:04;8.18;;;6.38;;
79640;SDS011;69115;49.904;14.390;2023-05-02T11:35:59;8.27;;;5.40;;
79640;SDS011;69115;49.904;14.390;2023-05-02T11:38:25;8.27;;;5.45;;
79640;SDS011;69115;49.904;14.390;2023-05-02T11:40:56;9.15;;;5.80;;
79640;SDS011;69115;49.904;14.390;2023-05-02T11:43:23;10.35;;;5.82;;
79640;SDS011;69115;49.904;14.390;2023-05-02T11:45:50;9.23;;;6.63;;
79640;SDS011;69115;49.904;14.390;2023-05-02T11:48:17;7.25;;;5.47;;
79640;SDS011;69115;49.904;14.390;2023-05-02T11:50:50;7.40;;;5.28;;
79640;SDS011;69115;49.904;14.390;2023-05-02T11:53:21;7.43;;;5.85;;
79640;SDS011;69115;49.904;14.390;2023-05-02T11:55:54;8.50;;;5.80;;
79640;SDS011;69115;49.904;14.390;2023-05-02T11:58:22;7.75;;;5.22;;
79640;SDS011;69115;49.904;14.390;2023-05-02T12:00:49;10.70;;;5.82;;
79640;SDS011;69115;49.904;14.390;2023-05-02T12:03:22;8.95;;;5.13;;
79640;SDS011;69115;49.904;14.390;2023-05-02T12:05:52;7.03;;;4.57;;
79640;SDS011;69115;49.904;14.390;2023-05-02T12:08:22;6.15;;;4.72;;
79640;SDS011;69115;49.904;14.390;2023-05-02T12:10:50;7.00;;;5.53;;
79640;SDS011;69115;49.904;14.390;2023-05-02T12:13:17;7.38;;;4.80;;
79640;SDS011;69115;49.904;14.390;2023-05-02T12:15:42;8.18;;;5.00;;
79640;SDS011;69115;49.904;14.390;2023-05-02T12:18:08;8.13;;;4.82;;
79640;SDS011;69115;49.904;14.390;2023-05-02T12:20:34;5.70;;;4.75;;
79640;SDS011;69115;49.904;14.390;2023-05-02T12:23:01;6.78;;;4.22;;
79640;SDS011;69115;49.904;14.390;2023-05-02T12:25:28;7.03;;;4.63;;
79640;SDS011;69115;49.904;14.390;2023-05-02T12:27:58;6.80;;;4.40;;
79640;SDS011;69115;49.904;14.390;2023-05-02T12:30:28;5.20;;;4.40;;
79640;SDS011;69115;49.904;14.390;2023-05-02T12:32:57;8.25;;;4.00;;
79640;SDS011;69115;49.904;14.390;2023-05-02T12:35:25;6.70;;;4.47;;
79640;SDS011;69115;49.904;14.390;2023-05-02T12:37:51;7.13;;;4.57;;
79640;SDS011;69115;49.904;14.390;2023-05-02T12:40:18;8.38;;;5.22;;
79640;SDS011;69115;49.904;14.390;2023-05-02T12:43:05;7.80;;;5.00;;
79640;SDS011;69115;49.904;14.390;2023-05-02T12:45:32;5.95;;;4.20;;
79640;SDS011;69115;49.904;14.390;2023-05-02T12:48:05;5.57;;;4.13;;
79640;SDS011;69115;49.904;14.390;2023-05-02T12:50:45;6.68;;;4.55;;
79640;SDS011;69115;49.904;14.390;2023-05-02T12:53:10;8.93;;;4.15;;
79640;SDS011;69115;49.904;14.390;2023-05-02T12:55:36;5.05;;;3.33;;
79640;SDS011;69115;49.904;14.390;2023-05-02T12:58:02;4.65;;;3.60;;
79640;SDS011;69115;49.904;14.390;2023-05-02T13:00:30;5.43;;;4.25;;
79640;SDS011;69115;49.904;14.390;2023-05-02T13:02:56;5.25;;;3.47;;
79640;SDS011;69115;49.904;14.390;2023-05-02T13:05:22;6.88;;;3.85;;
79640;SDS011;69115;49.904;14.390;2023-05-02T13:07:48;5.07;;;3.67;;
79640;SDS011;69115;49.904;14.390;2023-05-02T13:10:14;7.88;;;4.03;;
79640;SDS011;69115;49.904;14.390;2023-05-02T13:12:42;4.22;;;3.40;;
79640;SDS011;69115;49.904;14.390;2023-05-02T13:15:08;4.43;;;3.22;;
79640;SDS011;69115;49.904;14.390;2023-05-02T13:17:34;4.63;;;3.22;;
79640;SDS011;69115;49.904;14.390;2023-05-02T13:20:00;5.78;;;3.25;;
79640;SDS011;69115;49.904;14.390;2023-05-02T13:22:26;5.95;;;3.47;;
79640;SDS011;69115;49.904;14.390;2023-05-02T13:24:52;6.80;;;3.75;;
79640;SDS011;69115;49.904;14.390;2023-05-02T13:27:18;4.20;;;3.03;;
79640;SDS011;69115;49.904;14.390;2023-05-02T13:29:44;5.00;;;3.28;;
79640;SDS011;69115;49.904;14.390;2023-05-02T13:32:10;4.72;;;4.00;;
79640;SDS011;69115;49.904;14.390;2023-05-02T13:34:35;4.13;;;3.38;;
79640;SDS011;69115;49.904;14.390;2023-05-02T13:37:01;6.15;;;3.60;;
79640;SDS011;69115;49.904;14.390;2023-05-02T13:39:26;5.05;;;3.83;;
79640;SDS011;69115;49.904;14.390;2023-05-02T13:41:52;5.20;;;4.07;;
79640;SDS011;69115;49.904;14.390;2023-05-02T13:44:17;5.97;;;3.78;;
79640;SDS011;69115;49.904;14.390;2023-05-02T13:46:43;9.10;;;4.55;;
79640;SDS011;69115;49.904;14.390;2023-05-02T13:49:08;7.65;;;4.90;;
79640;SDS011;69115;49.904;14.390;2023-05-02T13:51:34;8.85;;;5.18;;
79640;SDS011;69115;49.904;14.390;2023-05-02T13:54:00;7.95;;;5.70;;
79640;SDS011;69115;49.904;14.390;2023-05-02T13:56:25;9.98;;;6.60;;
79640;SDS011;69115;49.904;14.390;2023-05-02T13:58:51;8.23;;;5.35;;
79640;SDS011;69115;49.904;14.390;2023-05-02T14:01:17;5.82;;;4.35;;
79640;SDS011;69115;49.904;14.390;2023-05-02T14:03:42;9.52;;;4.90;;
79640;SDS011;69115;49.904;14.390;2023-05-02T14:06:07;8.77;;;4.90;;
79640;SDS011;69115;49.904;14.390;2023-05-02T14:08:33;7.03;;;5.40;;
79640;SDS011;69115;49.904;14.390;2023-05-02T14:10:58;7.53;;;5.55;;
79640;SDS011;69115;49.904;14.390;2023-05-02T14:13:24;7.35;;;5.13;;
79640;SDS011;69115;49.904;14.390;2023-05-02T14:15:50;7.60;;;5.57;;
79640;SDS011;69115;49.904;14.390;2023-05-02T14:18:15;8.73;;;5.43;;
79640;SDS011;69115;49.904;14.390;2023-05-02T14:20:41;8.55;;;5.80;;
79640;SDS011;69115;49.904;14.390;2023-05-02T14:23:07;11.57;;;5.32;;
79640;SDS011;69115;49.904;14.390;2023-05-02T14:25:32;9.30;;;5.68;;
79640;SDS011;69115;49.904;14.390;2023-05-02T14:27:58;12.95;;;6.55;;
79640;SDS011;69115;49.904;14.390;2023-05-02T14:30:24;9.40;;;6.32;;
79640;SDS011;69115;49.904;14.390;2023-05-02T14:32:50;10.18;;;6.40;;
79640;SDS011;69115;49.904;14.390;2023-05-02T14:35:16;8.55;;;6.25;;
79640;SDS011;69115;49.904;14.390;2023-05-02T14:37:41;9.43;;;6.50;;
79640;SDS011;69115;49.904;14.390;2023-05-02T14:40:09;11.38;;;6.32;;
79640;SDS011;69115;49.904;14.390;2023-05-02T14:42:34;9.65;;;5.90;;
79640;SDS011;69115;49.904;14.390;2023-05-02T14:45:00;8.50;;;5.80;;
79640;SDS011;69115;49.904;14.390;2023-05-02T14:47:29;11.55;;;6.80;;
79640;SDS011;69115;49.904;14.390;2023-05-02T14:49:57;9.55;;;5.88;;
79640;SDS011;69115;49.904;14.390;2023-05-02T14:52:23;10.48;;;5.97;;
79640;SDS011;69115;49.904;14.390;2023-05-02T14:54:48;11.45;;;6.10;;
79640;SDS011;69115;49.904;14.390;2023-05-02T14:57:14;9.63;;;6.35;;
79640;SDS011;69115;49.904;14.390;2023-05-02T14:59:39;9.80;;;6.32;;
79640;SDS011;69115;49.904;14.390;2023-05-02T15:02:05;8.70;;;6.03;;
79640;SDS011;69115;49.904;14.390;2023-05-02T15:04:31;10.60;;;7.00;;
79640;SDS011;69115;49.904;14.390;2023-05-02T15:06:56;8.68;;;5.60;;
79640;SDS011;69115;49.904;14.390;2023-05-02T15:09:22;9.43;;;6.28;;
79640;SDS011;69115;49.904;14.390;2023-05-02T15:11:50;8.27;;;6.10;;